Aérodrome :
LOGIN :

S'inscrire | Disclaimer

   EN    FR    IT 

 










Légende :    VFR   VFR Marginal   IFR   IFR Intensif   IFR Très Intensif
Visi : 
Plafond : 
>= 8 km
>= 3000ft
5 à 8 km
1000 à 3000 ft
1500m à 5 km
500 à 1000 ft
800 à 1500m
200 à 500 ft
< 800m
< 200 ft
Symboles :   Orages  Brouillard  Fortes neiges  Fortes précipitations  Vent > 20 kt
SIGMETs :   Divers  Orages  Givrage  Turbulence  Onde Orograph.  Cendres Volcan.






- Altitude de l'aérodrome : 14 ft
- Code IATA : BRE


EDDW - Bremen Neuenland

DERNIER METAR :
  • 270550Z VRB02KT CAVOK 12/11 Q1033 NOSIG

METARs EXPIRÉS :
  • 270520Z 25001KT CAVOK 10/10 Q1033 NOSIG
  • 270450Z VRB02KT CAVOK 09/09 Q1033 NOSIG
  • 270420Z VRB01KT 2300 BR NSC 09/09 Q1033 BECMG CAVOK
  • 270350Z 22002KT 0600 R27/0375V0500N FG NSC 06/06 Q1033 BECMG CAVOK
  • 270320Z VRB02KT 0800 R27/0325V0550N FG NSC 07/07 Q1034

TAF TAF EDDW
Valide du 27 à 06h jusqu'au 28 à 06h UTC


270500Z 2706/2806 32004KT CAVOK
BECMG 2709/2711 33010KT
PROB30
TEMPO 2714/2718 35015G25KT
BECMG 2721/2723 33005KT



MET'MAP, la Météo Aéronautique d'un coup d'oeil ! - Copyright ORBIFLY Décembre 2007 - Disclaimer

ORBIFLY MET'MAP TEAM :

Programmation & Développement : Alexandra Zaïnal
Sur une idée originale de : Baudouin d'Aumeries
Assistance à la programmation : Marc-Olivier Méhu
Soutien technique & logistique : Manuel Goepfert

Contact : metmap@orbifly.com




SOURCES & CREDITS :

   NOAA